createdAt,value
2018-02-27T00:00:37.550Z,1.90
2018-02-27T00:01:37.542Z,2.00
2018-02-27T00:02:37.543Z,1.70
2018-02-27T00:03:37.676Z,1.70
2018-02-27T00:04:37.540Z,1.60
2018-02-27T00:05:37.571Z,1.60
2018-02-27T00:06:37.641Z,2.00
2018-02-27T00:07:37.571Z,1.50
2018-02-27T00:08:37.549Z,1.70
2018-02-27T00:09:37.570Z,2.30
2018-02-27T00:10:37.547Z,1.70
2018-02-27T00:11:37.586Z,2.00
2018-02-27T00:12:37.544Z,1.80
2018-02-27T00:13:37.549Z,2.20
2018-02-27T00:14:37.557Z,1.80
2018-02-27T00:15:37.551Z,1.80
2018-02-27T00:16:37.566Z,2.10
2018-02-27T00:17:37.564Z,1.80
2018-02-27T00:18:37.553Z,2.00
2018-02-27T00:19:37.546Z,2.20
2018-02-27T00:20:37.638Z,2.30
2018-02-27T00:21:37.562Z,2.30
2018-02-27T00:22:37.567Z,1.90
2018-02-27T00:23:37.567Z,2.10
2018-02-27T00:24:37.569Z,1.90
2018-02-27T00:25:37.580Z,2.00
2018-02-27T00:26:37.577Z,2.50
2018-02-27T00:27:37.566Z,2.60
2018-02-27T00:28:37.563Z,3.30
2018-02-27T00:29:37.575Z,3.00
2018-02-27T00:30:37.576Z,3.30
2018-02-27T00:31:37.568Z,2.10
2018-02-27T00:32:37.567Z,2.20
2018-02-27T00:33:37.577Z,2.20
2018-02-27T00:34:37.590Z,2.30
2018-02-27T00:35:37.576Z,2.30
2018-02-27T00:36:37.586Z,2.20
2018-02-27T00:37:37.585Z,2.00
2018-02-27T00:38:37.593Z,2.00
2018-02-27T00:39:37.596Z,2.00
2018-02-27T00:40:37.597Z,1.90
2018-02-27T00:41:37.586Z,2.20
2018-02-27T00:42:37.590Z,2.20
2018-02-27T00:43:37.593Z,2.30
2018-02-27T00:44:37.616Z,2.30
2018-02-27T00:45:37.581Z,2.20
2018-02-27T00:46:38.321Z,2.00
2018-02-27T00:47:37.601Z,1.80
2018-02-27T00:48:37.607Z,2.10
2018-02-27T00:49:37.598Z,2.40
2018-02-27T00:50:37.610Z,2.30
2018-02-27T00:51:37.607Z,2.00
2018-02-27T00:52:37.606Z,2.20
2018-02-27T00:53:37.604Z,2.20
2018-02-27T00:54:37.602Z,1.90
2018-02-27T00:55:37.611Z,1.90
2018-02-27T00:56:37.610Z,1.80
2018-02-27T00:57:37.613Z,2.00
2018-02-27T00:58:37.617Z,2.30
2018-02-27T00:59:37.613Z,1.90
2018-02-27T01:00:37.631Z,2.00
2018-02-27T01:01:37.621Z,2.20
2018-02-27T01:02:37.617Z,2.10
2018-02-27T01:03:37.610Z,2.70
2018-02-27T01:04:37.615Z,1.90
2018-02-27T01:05:37.614Z,2.20
2018-02-27T01:06:37.632Z,1.80
2018-02-27T01:07:37.622Z,1.70
2018-02-27T01:08:37.619Z,2.20
2018-02-27T01:09:37.626Z,1.70
2018-02-27T01:10:37.638Z,1.60
2018-02-27T01:11:37.647Z,2.10
2018-02-27T01:12:37.753Z,2.10
2018-02-27T01:13:37.631Z,1.80
2018-02-27T01:14:37.626Z,1.90
2018-02-27T01:15:37.629Z,2.00
2018-02-27T01:16:37.636Z,1.70
2018-02-27T01:17:37.642Z,1.70
2018-02-27T01:18:37.649Z,1.70
2018-02-27T01:19:37.644Z,1.60
2018-02-27T01:20:37.638Z,1.50
2018-02-27T01:21:37.647Z,1.70
2018-02-27T01:22:37.636Z,1.80
2018-02-27T01:23:37.640Z,1.40
2018-02-27T01:24:37.634Z,1.70
2018-02-27T01:25:37.644Z,1.50
2018-02-27T01:26:37.645Z,1.80
2018-02-27T01:27:38.314Z,1.70
2018-02-27T01:28:37.645Z,1.60
2018-02-27T01:29:37.649Z,1.80
2018-02-27T01:30:37.649Z,1.60
2018-02-27T01:31:37.651Z,1.60
2018-02-27T01:32:37.642Z,1.50
2018-02-27T01:33:37.659Z,1.40
2018-02-27T01:34:37.662Z,1.30
2018-02-27T01:35:37.666Z,1.80
2018-02-27T01:36:37.654Z,1.90
2018-02-27T01:37:37.663Z,1.70
2018-02-27T01:38:37.670Z,1.80
2018-02-27T01:39:37.650Z,1.80
2018-02-27T01:40:37.655Z,1.60
2018-02-27T01:41:37.685Z,1.40
2018-02-27T01:42:37.661Z,1.70
2018-02-27T01:43:37.667Z,1.60
2018-02-27T01:44:37.663Z,1.70
2018-02-27T01:45:37.757Z,1.70
2018-02-27T01:46:37.657Z,1.60
2018-02-27T01:47:37.666Z,1.60
2018-02-27T01:48:37.667Z,1.60
2018-02-27T01:49:37.672Z,1.50
2018-02-27T01:50:37.667Z,1.70
2018-02-27T01:51:37.685Z,1.80
2018-02-27T01:52:37.676Z,1.60
2018-02-27T01:53:37.676Z,1.80
2018-02-27T01:54:37.681Z,1.70
2018-02-27T01:55:37.696Z,1.90
2018-02-27T01:56:37.676Z,1.70
2018-02-27T01:57:37.672Z,2.00
2018-02-27T01:58:37.678Z,1.80
2018-02-27T01:59:37.679Z,2.10
2018-02-27T02:00:37.676Z,2.10
2018-02-27T02:01:37.684Z,1.90
2018-02-27T02:02:37.682Z,1.70
2018-02-27T02:03:37.690Z,1.90
2018-02-27T02:04:37.684Z,1.70
2018-02-27T02:05:37.716Z,1.70
2018-02-27T02:06:37.687Z,2.10
2018-02-27T02:07:37.787Z,2.00
2018-02-27T02:08:37.736Z,2.00
2018-02-27T02:09:37.713Z,1.90
2018-02-27T02:10:37.700Z,1.60
2018-02-27T02:11:37.684Z,2.10
2018-02-27T02:12:37.700Z,2.30
2018-02-27T02:13:37.695Z,1.70
2018-02-27T02:14:37.689Z,1.70
2018-02-27T02:15:37.696Z,1.90
2018-02-27T02:16:37.711Z,1.90
2018-02-27T02:17:37.718Z,2.00
2018-02-27T02:18:37.698Z,1.80
2018-02-27T02:19:37.706Z,2.20
2018-02-27T02:20:37.699Z,1.80
2018-02-27T02:21:37.706Z,2.30
2018-02-27T02:22:37.706Z,1.70
2018-02-27T02:23:37.715Z,1.90
2018-02-27T02:24:37.703Z,1.80
2018-02-27T02:25:37.708Z,1.40
2018-02-27T02:26:37.709Z,1.80
2018-02-27T02:27:37.716Z,1.70
2018-02-27T02:28:37.721Z,1.70
2018-02-27T02:29:37.713Z,1.60
2018-02-27T02:30:37.725Z,1.60
2018-02-27T02:31:37.715Z,1.90
2018-02-27T02:32:37.717Z,1.70
2018-02-27T02:33:37.715Z,1.80
2018-02-27T02:34:37.721Z,1.90
2018-02-27T02:35:37.740Z,1.70
2018-02-27T02:36:37.710Z,2.10
2018-02-27T02:37:37.716Z,2.10
2018-02-27T02:38:37.722Z,1.90
2018-02-27T02:39:37.728Z,1.70
2018-02-27T02:40:37.722Z,1.80
2018-02-27T02:41:37.724Z,1.70
2018-02-27T02:42:37.786Z,2.20
2018-02-27T02:43:37.727Z,2.00
2018-02-27T02:44:37.724Z,2.00
2018-02-27T02:45:37.722Z,1.80
2018-02-27T02:46:37.731Z,1.60
2018-02-27T02:47:37.724Z,1.90
2018-02-27T02:48:37.747Z,2.10
2018-02-27T02:49:37.727Z,2.10
2018-02-27T02:50:37.733Z,1.90
2018-02-27T02:51:37.743Z,2.00
2018-02-27T02:52:37.737Z,1.90
2018-02-27T02:53:37.728Z,1.60
2018-02-27T02:54:37.737Z,1.60
2018-02-27T02:55:37.737Z,1.80
2018-02-27T02:56:37.748Z,1.90
2018-02-27T02:57:37.733Z,1.90
2018-02-27T02:58:37.748Z,1.90
2018-02-27T02:59:37.738Z,1.80
2018-02-27T03:00:37.789Z,1.70
2018-02-27T03:01:37.738Z,2.20
2018-02-27T03:02:37.736Z,2.00
2018-02-27T03:03:37.743Z,2.00
2018-02-27T03:04:37.746Z,2.20
2018-02-27T03:05:37.745Z,1.70
2018-02-27T03:06:37.743Z,2.00
2018-02-27T03:07:37.758Z,2.10
2018-02-27T03:08:37.822Z,2.20
2018-02-27T03:09:37.748Z,2.20
2018-02-27T03:10:37.748Z,1.90
2018-02-27T03:11:37.745Z,2.30
2018-02-27T03:12:37.754Z,2.40
2018-02-27T03:13:37.753Z,2.30
2018-02-27T03:14:37.754Z,2.60
2018-02-27T03:15:37.751Z,2.60
2018-02-27T03:16:37.751Z,2.30
2018-02-27T03:17:37.793Z,2.10
2018-02-27T03:18:37.756Z,2.30
2018-02-27T03:19:37.751Z,2.50
2018-02-27T03:20:37.755Z,2.40
2018-02-27T03:21:37.759Z,2.00
2018-02-27T03:22:37.755Z,2.60
2018-02-27T03:23:37.753Z,2.20
2018-02-27T03:24:37.755Z,2.60
2018-02-27T03:25:37.755Z,2.30
2018-02-27T03:26:37.882Z,2.40
2018-02-27T03:27:37.770Z,2.50
2018-02-27T03:28:37.764Z,2.10
2018-02-27T03:29:37.762Z,2.50
2018-02-27T03:30:37.766Z,2.80
2018-02-27T03:31:37.773Z,2.50
2018-02-27T03:32:37.762Z,2.80
2018-02-27T03:33:37.763Z,2.60
2018-02-27T03:34:37.764Z,2.60
2018-02-27T03:35:37.770Z,2.80
2018-02-27T03:36:37.763Z,2.50
2018-02-27T03:37:37.763Z,2.50
2018-02-27T03:38:37.763Z,2.40
2018-02-27T03:39:37.781Z,2.80
2018-02-27T03:40:37.769Z,2.80
2018-02-27T03:41:37.771Z,2.70
2018-02-27T03:42:37.773Z,3.00
2018-02-27T03:43:37.779Z,3.30
2018-02-27T03:44:37.771Z,2.40
2018-02-27T03:45:37.778Z,2.50
2018-02-27T03:46:37.773Z,2.50
2018-02-27T03:47:37.774Z,2.80
2018-02-27T03:48:37.762Z,3.00
2018-02-27T03:49:37.765Z,2.80
2018-02-27T03:50:37.776Z,2.70
2018-02-27T03:51:37.778Z,2.60
2018-02-27T03:52:37.793Z,3.00
2018-02-27T03:53:37.792Z,3.10
2018-02-27T03:54:37.779Z,2.70
2018-02-27T03:55:37.786Z,2.60
2018-02-27T03:56:37.776Z,2.70
2018-02-27T03:57:37.786Z,2.80
2018-02-27T03:58:37.784Z,3.10
2018-02-27T03:59:37.788Z,3.00
2018-02-27T04:00:37.778Z,3.40
2018-02-27T04:01:37.788Z,2.70
2018-02-27T04:02:37.781Z,2.90
2018-02-27T04:03:37.780Z,2.90
2018-02-27T04:04:37.787Z,2.90
2018-02-27T04:05:37.780Z,3.30
2018-02-27T04:06:37.785Z,2.90
2018-02-27T04:07:37.786Z,2.70
2018-02-27T04:08:37.784Z,3.20
2018-02-27T04:09:37.786Z,3.20
2018-02-27T04:10:37.789Z,2.90
2018-02-27T04:11:37.795Z,3.10
2018-02-27T04:12:37.806Z,2.50
2018-02-27T04:13:37.789Z,3.10
2018-02-27T04:14:37.786Z,2.90
2018-02-27T04:15:37.789Z,2.90
2018-02-27T04:16:37.786Z,3.20
2018-02-27T04:17:37.865Z,3.10
2018-02-27T04:18:37.796Z,3.10
2018-02-27T04:19:37.784Z,2.70
2018-02-27T04:20:37.819Z,3.20
2018-02-27T04:21:37.796Z,2.50
2018-02-27T04:22:37.806Z,3.40
2018-02-27T04:23:37.794Z,3.10
2018-02-27T04:24:37.797Z,3.30
2018-02-27T04:25:37.790Z,2.80
2018-02-27T04:26:37.805Z,3.10
2018-02-27T04:27:37.799Z,2.60
2018-02-27T04:28:37.795Z,3.60
2018-02-27T04:29:37.791Z,3.20
2018-02-27T04:30:37.798Z,2.90
2018-02-27T04:31:37.802Z,3.00
2018-02-27T04:32:37.801Z,3.00
2018-02-27T04:33:37.795Z,2.60
2018-02-27T04:34:37.802Z,2.90
2018-02-27T04:35:37.797Z,3.10
2018-02-27T04:36:37.800Z,2.80
2018-02-27T04:37:37.807Z,3.00
2018-02-27T04:38:37.813Z,2.90
2018-02-27T04:39:37.796Z,3.60
2018-02-27T04:40:37.795Z,3.00
2018-02-27T04:41:37.800Z,3.00
2018-02-27T04:42:37.805Z,2.90
2018-02-27T04:43:37.802Z,2.70
2018-02-27T04:44:37.800Z,3.00
2018-02-27T04:45:37.800Z,3.00
2018-02-27T04:46:37.794Z,2.80
2018-02-27T04:47:37.796Z,3.20
2018-02-27T04:48:37.815Z,2.90
2018-02-27T04:49:37.811Z,3.20
2018-02-27T04:50:37.823Z,2.80
2018-02-27T04:51:37.829Z,3.00
2018-02-27T04:52:37.806Z,2.80
2018-02-27T04:53:37.820Z,3.20
2018-02-27T04:54:37.808Z,3.30
2018-02-27T04:55:37.805Z,3.30
2018-02-27T04:56:37.813Z,3.30
2018-02-27T04:57:37.806Z,2.90
2018-02-27T04:58:37.810Z,3.30
2018-02-27T04:59:37.816Z,3.00
2018-02-27T05:00:37.819Z,3.30
2018-02-27T05:01:37.810Z,3.40
2018-02-27T05:02:37.819Z,3.30
2018-02-27T05:03:37.847Z,3.00
2018-02-27T05:04:37.803Z,3.10
2018-02-27T05:05:37.824Z,3.10
2018-02-27T05:06:37.818Z,2.90
2018-02-27T05:07:37.823Z,3.30
2018-02-27T05:08:37.813Z,2.50
2018-02-27T05:09:37.822Z,2.90
2018-02-27T05:10:37.829Z,3.10
2018-02-27T05:11:37.810Z,3.80
2018-02-27T05:12:37.816Z,3.60
2018-02-27T05:13:37.843Z,3.70
2018-02-27T05:14:37.817Z,3.10
2018-02-27T05:15:37.818Z,3.30
2018-02-27T05:16:37.821Z,3.10
2018-02-27T05:17:37.817Z,3.70
2018-02-27T05:18:37.816Z,3.40
2018-02-27T05:19:37.832Z,2.70
2018-02-27T05:20:37.904Z,3.40
2018-02-27T05:21:37.830Z,3.20
2018-02-27T05:22:37.821Z,3.40
2018-02-27T05:23:37.832Z,4.20
2018-02-27T05:24:37.817Z,3.20
2018-02-27T05:25:37.847Z,3.10
2018-02-27T05:26:37.834Z,2.80
2018-02-27T05:27:37.825Z,3.30
2018-02-27T05:28:37.830Z,3.70
2018-02-27T05:29:37.810Z,3.90
2018-02-27T05:30:37.825Z,3.50
2018-02-27T05:31:37.829Z,3.20
2018-02-27T05:32:37.822Z,3.70
2018-02-27T05:33:38.788Z,3.30
2018-02-27T05:34:37.860Z,3.50
2018-02-27T05:35:37.824Z,3.50
2018-02-27T05:36:37.837Z,3.90
2018-02-27T05:37:37.822Z,3.60
2018-02-27T05:38:37.841Z,2.90
2018-02-27T05:39:37.839Z,3.60
2018-02-27T05:40:37.842Z,5.70
2018-02-27T05:41:37.829Z,3.80
2018-02-27T05:42:37.858Z,3.50
2018-02-27T05:43:37.825Z,4.20
2018-02-27T05:44:37.814Z,3.90
2018-02-27T05:45:37.821Z,4.10
2018-02-27T05:46:37.825Z,3.50
2018-02-27T05:47:37.829Z,3.60
2018-02-27T05:48:37.822Z,3.70
2018-02-27T05:49:37.824Z,3.50
2018-02-27T05:50:37.832Z,3.30
2018-02-27T05:51:37.923Z,3.70
2018-02-27T05:52:37.820Z,3.90
2018-02-27T05:53:37.827Z,3.90
2018-02-27T05:54:37.832Z,4.40
2018-02-27T05:55:37.826Z,3.70
2018-02-27T05:56:37.832Z,4.30
2018-02-27T05:57:37.831Z,4.00
2018-02-27T05:58:37.834Z,4.00
2018-02-27T05:59:37.849Z,3.90
2018-02-27T06:00:37.861Z,3.70
2018-02-27T06:01:37.830Z,3.50
2018-02-27T06:02:37.879Z,4.20
2018-02-27T06:03:37.823Z,3.60
2018-02-27T06:04:37.930Z,4.00
2018-02-27T06:05:37.828Z,4.00
2018-02-27T06:06:37.845Z,3.70
2018-02-27T06:07:37.843Z,3.60
2018-02-27T06:08:37.832Z,3.80
2018-02-27T06:09:37.834Z,4.40
2018-02-27T06:10:37.853Z,3.70
2018-02-27T06:11:37.972Z,4.80
2018-02-27T06:12:37.836Z,5.10
2018-02-27T06:13:37.851Z,5.80
2018-02-27T06:14:37.848Z,3.70
2018-02-27T06:15:37.835Z,3.90
2018-02-27T06:16:37.832Z,3.80
2018-02-27T06:17:37.911Z,4.40
2018-02-27T06:18:37.868Z,5.20
2018-02-27T06:19:37.839Z,4.00
2018-02-27T06:20:37.842Z,4.00
2018-02-27T06:21:37.852Z,3.60
2018-02-27T06:22:37.824Z,4.20
2018-02-27T06:23:37.838Z,4.90
2018-02-27T06:24:37.874Z,4.10
2018-02-27T06:25:37.834Z,3.40
2018-02-27T06:26:37.854Z,4.10
2018-02-27T06:27:37.846Z,3.60
2018-02-27T06:28:37.851Z,4.10
2018-02-27T06:29:37.834Z,4.40
2018-02-27T06:30:37.867Z,4.80
2018-02-27T06:31:37.844Z,5.20
2018-02-27T06:32:37.894Z,4.70
2018-02-27T06:33:37.851Z,5.70
2018-02-27T06:34:37.843Z,5.00
2018-02-27T06:35:37.842Z,4.70
2018-02-27T06:36:37.877Z,3.80
2018-02-27T06:37:37.850Z,4.80
2018-02-27T06:38:37.851Z,4.10
2018-02-27T06:39:37.860Z,4.60
2018-02-27T06:40:37.866Z,6.80
2018-02-27T06:41:37.845Z,6.80
2018-02-27T06:42:37.850Z,4.60
2018-02-27T06:43:37.859Z,4.70
2018-02-27T06:44:37.844Z,4.70
2018-02-27T06:45:37.850Z,4.90
2018-02-27T06:46:37.847Z,4.90
2018-02-27T06:47:37.841Z,5.20
2018-02-27T06:48:37.946Z,4.50
2018-02-27T06:49:37.851Z,5.10
2018-02-27T06:50:37.858Z,5.80
2018-02-27T06:51:37.848Z,4.70
2018-02-27T06:52:37.866Z,5.30
2018-02-27T06:53:37.852Z,5.70
2018-02-27T06:54:37.861Z,5.50
2018-02-27T06:55:37.847Z,5.40
2018-02-27T06:56:37.851Z,5.60
2018-02-27T06:57:37.853Z,5.00
2018-02-27T06:58:37.864Z,5.00
2018-02-27T06:59:37.861Z,5.20
2018-02-27T07:00:37.849Z,5.70
2018-02-27T07:01:37.909Z,5.60
2018-02-27T07:02:37.858Z,5.70
2018-02-27T07:03:37.851Z,5.30
2018-02-27T07:04:37.852Z,5.70
2018-02-27T07:05:37.858Z,5.30
2018-02-27T07:06:37.868Z,6.10
2018-02-27T07:07:37.855Z,5.80
2018-02-27T07:08:37.857Z,5.40
2018-02-27T07:09:37.875Z,6.10
2018-02-27T07:10:37.871Z,6.00
2018-02-27T07:11:37.865Z,5.50
2018-02-27T07:12:37.889Z,5.70
2018-02-27T07:13:37.987Z,5.70
2018-02-27T07:14:37.944Z,5.40
2018-02-27T07:15:37.869Z,5.30
2018-02-27T07:16:37.864Z,5.80
2018-02-27T07:17:37.871Z,5.40
2018-02-27T07:18:37.867Z,5.70
2018-02-27T07:19:37.933Z,6.30
2018-02-27T07:20:37.865Z,5.00
2018-02-27T07:21:37.874Z,5.10
2018-02-27T07:22:37.877Z,5.80
2018-02-27T07:23:37.868Z,6.40
2018-02-27T07:24:37.888Z,4.80
2018-02-27T07:25:37.878Z,5.20
2018-02-27T07:26:37.879Z,5.80
2018-02-27T07:27:37.895Z,6.20
2018-02-27T07:28:37.880Z,5.80
2018-02-27T07:29:37.890Z,5.60
2018-02-27T07:30:37.889Z,6.00
2018-02-27T07:31:37.904Z,5.50
2018-02-27T07:32:37.885Z,5.20
2018-02-27T07:33:37.886Z,5.50
2018-02-27T07:34:37.882Z,5.70
2018-02-27T07:35:37.931Z,5.60
2018-02-27T07:36:37.909Z,5.10
2018-02-27T07:37:37.903Z,5.80
2018-02-27T07:38:37.901Z,5.50
2018-02-27T07:39:37.886Z,5.40
2018-02-27T07:40:37.889Z,5.70
2018-02-27T07:41:37.888Z,5.00
2018-02-27T07:42:37.901Z,5.30
2018-02-27T07:43:37.911Z,5.40
2018-02-27T07:44:37.901Z,5.30
2018-02-27T07:45:37.906Z,6.00
2018-02-27T07:46:37.912Z,5.50
2018-02-27T07:47:37.915Z,4.70
2018-02-27T07:48:37.909Z,5.40
2018-02-27T07:49:37.911Z,6.00
2018-02-27T07:50:37.909Z,5.10
2018-02-27T07:51:37.930Z,5.30
2018-02-27T07:52:37.944Z,4.90
2018-02-27T07:53:37.912Z,6.40
2018-02-27T07:54:37.971Z,5.90
2018-02-27T07:55:37.929Z,7.10
2018-02-27T07:56:37.926Z,6.60
2018-02-27T07:57:37.913Z,5.80
2018-02-27T07:58:37.928Z,5.30
2018-02-27T07:59:37.909Z,5.80
2018-02-27T08:00:37.916Z,4.80
2018-02-27T08:01:37.920Z,7.00
2018-02-27T08:02:37.926Z,6.20
2018-02-27T08:03:37.979Z,7.40
2018-02-27T08:04:37.931Z,5.90
2018-02-27T08:05:37.936Z,5.90
2018-02-27T08:06:37.946Z,7.30
2018-02-27T08:07:37.946Z,6.80
2018-02-27T08:08:37.966Z,6.40
2018-02-27T08:09:37.972Z,5.60
2018-02-27T08:10:37.954Z,6.20
2018-02-27T08:11:37.953Z,5.10
2018-02-27T08:12:37.964Z,4.80
2018-02-27T08:13:37.976Z,5.50
2018-02-27T08:14:37.973Z,4.40
2018-02-27T08:15:37.982Z,5.40
2018-02-27T08:16:37.998Z,4.80
2018-02-27T08:17:37.982Z,4.60
2018-02-27T08:18:37.989Z,5.20
2018-02-27T08:19:37.999Z,4.50
2018-02-27T08:20:37.998Z,4.00
2018-02-27T08:21:37.989Z,4.80
2018-02-27T08:22:38.000Z,5.10
2018-02-27T08:23:38.010Z,4.50
2018-02-27T08:24:38.022Z,4.60
2018-02-27T08:25:38.011Z,4.70
2018-02-27T08:26:38.037Z,5.20
2018-02-27T08:27:38.027Z,5.20
2018-02-27T08:28:38.096Z,4.50
2018-02-27T08:29:38.059Z,5.50
2018-02-27T08:30:38.034Z,4.80
2018-02-27T08:31:38.040Z,4.70
2018-02-27T08:32:38.043Z,4.90
2018-02-27T08:33:38.045Z,6.80
2018-02-27T08:34:38.055Z,4.30
2018-02-27T08:35:38.117Z,3.90
2018-02-27T08:36:38.068Z,4.30
2018-02-27T08:37:38.087Z,4.70
2018-02-27T08:38:38.081Z,3.80
2018-02-27T08:39:38.110Z,4.40
2018-02-27T08:40:38.113Z,3.90
2018-02-27T08:41:38.113Z,3.20
2018-02-27T08:42:38.117Z,3.40
2018-02-27T08:43:38.124Z,3.40
2018-02-27T08:44:38.132Z,4.10
2018-02-27T08:45:38.149Z,3.70
2018-02-27T08:46:38.176Z,3.70
2018-02-27T08:47:38.166Z,3.40
2018-02-27T08:48:38.180Z,3.60
2018-02-27T08:49:38.191Z,3.70
2018-02-27T08:50:38.189Z,4.80
2018-02-27T08:51:38.195Z,4.20
2018-02-27T08:52:38.224Z,4.40
2018-02-27T08:53:38.214Z,4.20
2018-02-27T08:54:38.235Z,4.10
2018-02-27T08:55:38.237Z,3.60
2018-02-27T08:56:38.266Z,4.30
2018-02-27T08:57:38.298Z,3.30
2018-02-27T08:58:38.269Z,3.40
2018-02-27T08:59:38.391Z,3.40
2018-02-27T09:00:38.288Z,3.70
2018-02-27T09:01:38.298Z,3.50
2018-02-27T09:02:38.310Z,3.50
2018-02-27T09:03:38.348Z,3.40
2018-02-27T09:04:38.334Z,3.60
2018-02-27T09:05:38.377Z,3.60
2018-02-27T09:06:38.362Z,2.90
2018-02-27T09:07:38.388Z,2.60
2018-02-27T09:08:38.382Z,2.70
2018-02-27T09:09:38.393Z,3.00
2018-02-27T09:10:38.412Z,2.40
2018-02-27T09:11:38.427Z,3.60
2018-02-27T09:12:38.429Z,2.60
2018-02-27T09:13:38.438Z,2.60
2018-02-27T09:14:39.314Z,3.40
2018-02-27T09:15:38.471Z,3.50
2018-02-27T09:16:38.494Z,3.00
2018-02-27T09:17:38.493Z,3.20
2018-02-27T09:18:38.503Z,3.00
2018-02-27T09:19:38.527Z,2.90
2018-02-27T09:20:38.538Z,3.10
2018-02-27T09:21:38.546Z,3.00
2018-02-27T09:22:38.652Z,2.30
2018-02-27T09:23:38.566Z,3.70
2018-02-27T09:24:38.663Z,4.40
2018-02-27T09:25:38.583Z,2.60
2018-02-27T09:26:38.602Z,2.60
2018-02-27T09:27:38.616Z,2.60
2018-02-27T09:28:38.626Z,2.80
2018-02-27T09:29:38.662Z,3.30
2018-02-27T09:30:38.638Z,3.00
2018-02-27T09:31:38.705Z,3.30
2018-02-27T09:32:38.676Z,3.00
2018-02-27T09:33:38.676Z,3.20
2018-02-27T09:34:39.288Z,3.20
2018-02-27T09:35:38.700Z,3.70
2018-02-27T09:36:38.713Z,2.50
2018-02-27T09:37:38.723Z,3.40
2018-02-27T09:38:38.728Z,3.70
2018-02-27T09:39:38.744Z,3.20
2018-02-27T09:40:38.768Z,3.00
2018-02-27T09:41:38.765Z,4.00
2018-02-27T09:42:38.774Z,3.50
2018-02-27T09:43:38.784Z,3.10
2018-02-27T09:44:38.795Z,3.10
2018-02-27T09:45:38.845Z,3.90
2018-02-27T09:46:38.823Z,4.20
2018-02-27T09:47:38.830Z,3.50
2018-02-27T09:48:38.832Z,3.60
2018-02-27T09:49:38.840Z,3.30
2018-02-27T09:50:38.847Z,3.80
2018-02-27T09:51:38.858Z,3.80
2018-02-27T09:52:38.866Z,3.70
2018-02-27T09:53:38.877Z,4.00
2018-02-27T09:54:38.882Z,3.40
2018-02-27T09:55:38.886Z,3.10
2018-02-27T09:56:38.898Z,4.70
2018-02-27T09:57:38.909Z,4.20
2018-02-27T09:58:38.941Z,3.80
2018-02-27T09:59:38.918Z,3.90
2018-02-27T10:00:38.926Z,4.60
2018-02-27T10:01:38.934Z,2.80
2018-02-27T10:02:39.012Z,3.70
2018-02-27T10:03:38.954Z,3.10
2018-02-27T10:04:38.956Z,3.40
2018-02-27T10:05:38.958Z,3.60
2018-02-27T10:06:38.973Z,3.60
2018-02-27T10:07:38.984Z,3.50
2018-02-27T10:08:38.986Z,3.40
2018-02-27T10:09:39.039Z,3.40
2018-02-27T10:10:39.031Z,3.50
2018-02-27T10:11:38.997Z,3.70
2018-02-27T10:12:39.164Z,4.20
2018-02-27T10:14:39.060Z,3.50
2018-02-27T10:15:39.028Z,3.80
2018-02-27T10:16:39.023Z,3.40
2018-02-27T10:17:39.136Z,3.40
2018-02-27T10:18:39.056Z,3.20
2018-02-27T10:19:39.059Z,3.80
2018-02-27T10:20:39.063Z,3.60
2018-02-27T10:21:39.073Z,3.60
2018-02-27T10:22:39.077Z,4.40
2018-02-27T10:23:39.083Z,3.60
2018-02-27T10:24:39.089Z,3.30
2018-02-27T10:25:39.095Z,3.50
2018-02-27T10:26:39.112Z,3.70
2018-02-27T10:27:39.142Z,3.90
2018-02-27T10:28:39.121Z,3.50
2018-02-27T10:29:39.124Z,3.30
2018-02-27T10:30:39.200Z,3.80
2018-02-27T10:31:39.153Z,4.20
2018-02-27T10:32:39.149Z,4.60
2018-02-27T10:33:39.186Z,4.10
2018-02-27T10:34:39.189Z,2.80
2018-02-27T10:35:39.164Z,2.90
2018-02-27T10:36:39.178Z,3.10
2018-02-27T10:37:39.179Z,3.50
2018-02-27T10:38:39.194Z,3.70
2018-02-27T10:39:39.195Z,3.60
2018-02-27T10:40:39.249Z,3.70
2018-02-27T10:41:39.210Z,3.30
2018-02-27T10:42:39.221Z,5.30
2018-02-27T10:43:39.226Z,4.60
2018-02-27T10:44:39.233Z,3.70
2018-02-27T10:45:39.224Z,3.50
2018-02-27T10:46:39.251Z,3.40
2018-02-27T10:47:39.265Z,3.70
2018-02-27T10:48:39.282Z,3.50
2018-02-27T10:49:39.262Z,3.80
2018-02-27T10:50:39.276Z,3.50
2018-02-27T10:51:39.273Z,3.90
2018-02-27T10:52:39.280Z,4.30
2018-02-27T10:53:39.318Z,3.60
2018-02-27T10:54:39.302Z,3.80
2018-02-27T10:55:39.314Z,3.90
2018-02-27T10:56:39.315Z,4.00
2018-02-27T10:57:39.325Z,4.50
2018-02-27T10:58:39.325Z,4.70
2018-02-27T10:59:39.327Z,4.80
2018-02-27T11:00:39.334Z,4.30
2018-02-27T11:01:39.333Z,4.10
2018-02-27T11:02:39.379Z,3.90
2018-02-27T11:03:39.488Z,4.30
2018-02-27T11:04:39.396Z,4.50
2018-02-27T11:05:39.362Z,4.30
2018-02-27T11:06:39.371Z,4.20
2018-02-27T11:07:39.409Z,5.10
2018-02-27T11:08:39.373Z,5.50
2018-02-27T11:09:39.385Z,5.80
2018-02-27T11:10:39.386Z,5.20
2018-02-27T11:11:39.398Z,4.70
2018-02-27T11:12:39.451Z,3.90
2018-02-27T11:13:39.422Z,3.90
2018-02-27T11:14:39.424Z,3.50
2018-02-27T11:15:39.423Z,4.20
2018-02-27T11:16:39.473Z,5.10
2018-02-27T11:17:39.433Z,4.10
2018-02-27T11:18:39.434Z,3.40
2018-02-27T11:19:39.446Z,3.80
2018-02-27T11:20:39.442Z,4.00
2018-02-27T11:21:39.477Z,4.00
2018-02-27T11:22:39.463Z,3.70
2018-02-27T11:23:39.523Z,4.00
2018-02-27T11:24:39.510Z,8.50
2018-02-27T11:25:39.512Z,6.00
2018-02-27T11:26:39.527Z,4.50
2018-02-27T11:27:39.478Z,3.90
2018-02-27T11:28:39.514Z,4.60
2018-02-27T11:29:39.490Z,5.40
2018-02-27T11:30:39.496Z,3.90
2018-02-27T11:31:39.506Z,3.90
2018-02-27T11:32:39.544Z,4.70
2018-02-27T11:33:39.517Z,3.90
2018-02-27T11:34:39.519Z,3.90
2018-02-27T11:35:39.533Z,3.80
2018-02-27T11:36:39.539Z,3.30
2018-02-27T11:37:39.617Z,3.60
2018-02-27T11:38:39.538Z,4.20
2018-02-27T11:39:39.592Z,4.20
2018-02-27T11:40:39.550Z,4.20
2018-02-27T11:41:39.573Z,4.20
2018-02-27T11:42:39.606Z,4.30
2018-02-27T11:43:39.559Z,4.00
2018-02-27T11:44:39.581Z,4.00
2018-02-27T11:45:39.575Z,3.60
2018-02-27T11:46:39.588Z,4.70
2018-02-27T11:47:39.653Z,3.80
2018-02-27T11:48:39.606Z,4.70
2018-02-27T11:49:39.601Z,4.00
2018-02-27T11:50:39.598Z,4.80
2018-02-27T11:51:39.617Z,4.40
2018-02-27T11:52:39.609Z,5.30
2018-02-27T11:53:39.628Z,4.90
2018-02-27T11:54:39.617Z,4.60
2018-02-27T11:55:39.635Z,4.40
2018-02-27T11:56:39.668Z,4.50
2018-02-27T11:57:39.639Z,4.30
2018-02-27T11:58:39.647Z,4.70
2018-02-27T11:59:39.666Z,5.20
2018-02-27T12:00:39.671Z,5.00
2018-02-27T12:01:39.681Z,3.90
2018-02-27T12:02:39.669Z,4.10
2018-02-27T12:03:39.683Z,3.90
2018-02-27T12:04:39.676Z,4.50
2018-02-27T12:05:39.711Z,4.50
2018-02-27T12:06:39.705Z,5.40
2018-02-27T12:07:39.808Z,6.80
2018-02-27T12:08:39.718Z,4.30
2018-02-27T12:09:39.740Z,4.20
2018-02-27T12:10:39.728Z,4.60
2018-02-27T12:11:39.729Z,4.60
2018-02-27T12:12:39.740Z,4.20
2018-02-27T12:13:39.760Z,4.20
2018-02-27T12:14:39.738Z,5.10
2018-02-27T12:15:39.748Z,5.60
2018-02-27T12:16:39.751Z,4.40
2018-02-27T12:17:39.795Z,4.60
2018-02-27T12:18:39.759Z,5.30
2018-02-27T12:19:39.811Z,4.60
2018-02-27T12:20:39.812Z,5.00
2018-02-27T12:21:39.783Z,5.20
2018-02-27T12:22:39.791Z,4.90
2018-02-27T12:23:39.800Z,5.00
2018-02-27T12:24:39.807Z,4.80
2018-02-27T12:25:39.833Z,4.00
2018-02-27T12:26:39.852Z,5.00
2018-02-27T12:27:39.834Z,5.00
2018-02-27T12:28:39.846Z,4.20
2018-02-27T12:29:39.848Z,4.20
2018-02-27T12:30:39.893Z,4.10
2018-02-27T12:31:39.901Z,3.60
2018-02-27T12:32:39.874Z,4.40
2018-02-27T12:33:39.892Z,4.60
2018-02-27T12:34:39.895Z,4.10
2018-02-27T12:35:39.910Z,4.10
2018-02-27T12:36:39.924Z,5.00
2018-02-27T12:37:39.927Z,3.50
2018-02-27T12:38:39.940Z,4.40
2018-02-27T12:39:39.948Z,4.60
2018-02-27T12:40:39.953Z,3.70
2018-02-27T12:41:39.972Z,3.00
2018-02-27T12:42:39.985Z,3.30
2018-02-27T12:43:39.994Z,3.70
2018-02-27T12:44:40.009Z,2.90
2018-02-27T12:45:40.049Z,3.20
2018-02-27T12:46:40.033Z,2.80
2018-02-27T12:47:40.079Z,3.60
2018-02-27T12:48:40.062Z,3.20
2018-02-27T12:49:40.085Z,3.40
2018-02-27T12:50:40.084Z,3.30
2018-02-27T12:51:40.102Z,3.50
2018-02-27T12:52:40.103Z,4.20
2018-02-27T12:53:40.121Z,4.00
2018-02-27T12:54:40.134Z,3.90
2018-02-27T12:55:40.165Z,3.40
2018-02-27T12:56:40.160Z,3.10
2018-02-27T12:57:40.181Z,4.30
2018-02-27T12:58:40.175Z,3.10
2018-02-27T12:59:40.209Z,3.60
2018-02-27T13:00:40.206Z,3.20
2018-02-27T13:01:40.214Z,3.50
2018-02-27T13:02:40.228Z,3.20
2018-02-27T13:03:40.250Z,3.40
2018-02-27T13:04:40.270Z,3.50
2018-02-27T13:05:40.286Z,3.30
2018-02-27T13:06:40.295Z,3.70
2018-02-27T13:07:40.292Z,3.20
2018-02-27T13:08:40.315Z,3.40
2018-02-27T13:09:40.327Z,2.60
2018-02-27T13:10:40.340Z,2.70
2018-02-27T13:11:40.349Z,3.40
2018-02-27T13:12:40.363Z,3.40
2018-02-27T13:13:40.374Z,3.40
2018-02-27T13:14:40.404Z,3.50
2018-02-27T13:15:40.456Z,3.50
2018-02-27T13:16:40.416Z,3.80
2018-02-27T13:17:40.422Z,3.30
2018-02-27T13:18:40.435Z,3.30
2018-02-27T13:19:40.458Z,3.40